Dalhart Municipal Airport Dalhart US
ICAO: KDHT
IATA: DHT
Category: Medium
Scheduled Services: No

Elevation: 3991 ft
TransAlt. 18000 ft.

Airport Communications:
ASOS:134.075
ALBUQUERQUE CNTR:127.85
FORT WORTH RDO:122.2
CTAF/UNICOM:122.95

KDHT Zoom In..

Runways:

(A) RW 03 length 5440 ft width 75 ft
---- / hdg 36

(B) RW 17 length 6400 ft width 75 ft
---- / hdg 171

(C) RW 21 length 5440 ft width 75 ft
---- / hdg 216

(D) RW 35 length 6400 ft width 75 ft
---- / hdg 351

Location; KDHT
Day. 14 / Time. 13.53 Zulu
* Altimeter: 30.01
* Temperature: 21° c. 69.8°f.
* Wind from: 220° Speed 09 kn.
Dewpoint: 18° c.
Visibility: 8 Statute Miles.
Clouds: Clear (automated report).

KDHT 141353Z AUTO 22009KT 8SM CLR 21/18 A3001 RMK AO2 SLP104 T02110183


Wind From 220°
Speed 09 kn.

 
 
jpsmedia.com for Web Design worldairports.se 2018   terms of use